Time;durP1;ratioP1;P1;durP2;ratioP2;P2;SDS_P1;SDS_P2;PMS_P1;PMS_P2;Temp;Humidity;BMP_temperature;BMP_pressure;BME280_temperature;BME280_humidity;BME280_pressure;Samples;Min_cycle;Max_cycle;Signal;HPM_P1;HPM_P2
2021/03/02 00:00:29;;;;;;;14.48;4.32;;;5.40;99.90;;;;;;10199975;28;20047;-48
2021/03/02 00:05:50;;;;;;;8.35;3.00;;;5.30;99.90;;;;;;10200232;28;20047;-48
2021/03/02 00:11:12;;;;;;;11.05;3.55;;;5.30;99.90;;;;;;10197546;28;20046;-49
2021/03/02 00:16:34;;;;;;;8.82;2.53;;;5.30;99.90;;;;;;10201918;28;20412;-48
2021/03/02 00:22:02;;;;;;;8.60;2.33;;;5.20;99.90;;;;;;10197525;28;20048;-49
2021/03/02 00:27:24;;;;;;;5.95;2.53;;;5.20;99.90;;;;;;10205731;28;20044;-48
2021/03/02 00:32:47;;;;;;;7.35;3.03;;;5.10;99.90;;;;;;10202689;28;20042;-48
2021/03/02 00:38:08;;;;;;;21.13;4.03;;;5.00;99.90;;;;;;10204233;28;20416;-48
2021/03/02 00:43:29;;;;;;;9.82;4.45;;;5.00;99.90;;;;;;10200773;28;20052;-48
2021/03/02 00:48:50;;;;;;;10.50;3.30;;;5.10;99.90;;;;;;10195435;28;20779;-48
2021/03/02 00:54:11;;;;;;;16.23;4.05;;;5.00;99.90;;;;;;10197943;28;20398;-48
2021/03/02 00:59:32;;;;;;;9.38;3.25;;;5.00;99.90;;;;;;10198608;28;20525;-49
2021/03/02 01:04:53;;;;;;;5.63;2.65;;;4.90;99.90;;;;;;10198547;28;20040;-48
2021/03/02 01:10:14;;;;;;;9.18;2.88;;;4.80;99.90;;;;;;10203259;28;20369;-48
2021/03/02 01:15:35;;;;;;;5.78;3.03;;;4.80;99.90;;;;;;10200044;28;20043;-48
2021/03/02 01:20:56;;;;;;;8.20;3.35;;;4.80;99.90;;;;;;10193484;28;20257;-48
2021/03/02 01:26:17;;;;;;;13.43;3.95;;;4.70;99.90;;;;;;10195175;28;20051;-48
2021/03/02 01:31:38;;;;;;;10.18;3.20;;;4.60;99.90;;;;;;10198472;28;20440;-48
2021/03/02 01:37:00;;;;;;;11.65;2.85;;;4.60;99.90;;;;;;10199774;28;20049;-48
2021/03/02 01:42:21;;;;;;;10.48;4.50;;;4.60;99.90;;;;;;10194564;28;20047;-48
2021/03/02 01:47:44;;;;;;;10.85;3.63;;;4.50;99.90;;;;;;10200861;28;20040;-48
2021/03/02 01:53:05;;;;;;;11.88;2.95;;;4.50;99.90;;;;;;10194140;28;20123;-49
2021/03/02 01:58:27;;;;;;;10.75;3.63;;;4.50;99.90;;;;;;10195267;28;20102;-48
2021/03/02 02:04:14;;;;;;;11.43;3.40;;;4.50;99.90;;;;;;10195047;28;20043;-48
2021/03/02 02:09:37;;;;;;;11.18;3.60;;;4.50;99.90;;;;;;10193007;28;20078;-48
2021/03/02 02:15:04;;;;;;;12.98;5.25;;;4.40;99.90;;;;;;10198500;28;20070;-49
2021/03/02 02:20:28;;;;;;;10.68;4.03;;;4.30;99.90;;;;;;10198698;28;20134;-49
2021/03/02 02:26:13;;;;;;;13.75;4.43;;;4.20;99.90;;;;;;10193782;28;20039;-48
2021/03/02 02:31:38;;;;;;;10.85;4.43;;;4.20;99.90;;;;;;10196671;28;20122;-48
2021/03/02 02:37:02;;;;;;;9.50;3.05;;;4.20;99.90;;;;;;10195601;28;20118;-49
2021/03/02 02:42:25;;;;;;;19.05;3.17;;;4.10;99.90;;;;;;10197658;28;20127;-48
2021/03/02 02:47:48;;;;;;;15.45;3.42;;;4.00;99.90;;;;;;10196315;28;20133;-48
2021/03/02 02:53:09;;;;;;;10.20;3.72;;;3.90;99.90;;;;;;10194961;28;20488;-48
2021/03/02 02:58:37;;;;;;;11.73;5.10;;;3.90;99.90;;;;;;10193121;28;20055;-48
2021/03/02 03:04:01;;;;;;;10.93;4.63;;;3.90;99.90;;;;;;10204436;28;20051;-48
2021/03/02 03:09:23;;;;;;;10.93;4.38;;;3.80;99.90;;;;;;10195503;28;20066;-48
2021/03/02 03:14:51;;;;;;;10.93;3.22;;;3.80;99.90;;;;;;10201757;28;20050;-48
2021/03/02 03:20:13;;;;;;;10.10;3.70;;;3.80;99.90;;;;;;10202640;28;20214;-49
2021/03/02 03:25:34;;;;;;;8.02;3.85;;;3.70;99.90;;;;;;10197991;28;20132;-48
2021/03/02 03:30:56;;;;;;;4.22;2.35;;;3.70;99.90;;;;;;10201499;28;20443;-48
2021/03/02 03:36:17;;;;;;;8.38;4.07;;;3.60;99.90;;;;;;10200712;28;20047;-48
2021/03/02 03:41:39;;;;;;;14.75;4.60;;;3.60;99.90;;;;;;10195288;28;20067;-48
2021/03/02 03:47:02;;;;;;;11.45;4.22;;;3.60;99.90;;;;;;10203717;28;20443;-48
2021/03/02 03:52:23;;;;;;;20.73;5.15;;;3.60;99.90;;;;;;10201991;28;20035;-48
2021/03/02 03:57:45;;;;;;;10.93;4.65;;;3.60;99.90;;;;;;10207800;28;20392;-48
2021/03/02 04:03:07;;;;;;;14.13;4.68;;;3.60;99.90;;;;;;10203584;28;20042;-48
2021/03/02 04:08:29;;;;;;;7.40;3.38;;;3.50;99.90;;;;;;10199736;28;20098;-48
2021/03/02 04:13:50;;;;;;;11.82;3.88;;;3.50;99.90;;;;;;10197538;28;20071;-48
2021/03/02 04:19:11;;;;;;;11.63;2.88;;;3.40;99.90;;;;;;10199769;28;20210;-48
2021/03/02 04:24:32;;;;;;;13.07;4.72;;;3.30;99.90;;;;;;10202973;28;20786;-48
2021/03/02 04:29:53;;;;;;;12.85;3.45;;;3.20;99.90;;;;;;10201487;28;20036;-48
2021/03/02 04:35:14;;;;;;;9.68;3.60;;;3.20;99.90;;;;;;10196690;28;20110;-48
2021/03/02 04:40:35;;;;;;;13.15;4.30;;;3.20;99.90;;;;;;10202416;28;20044;-48
2021/03/02 04:45:56;;;;;;;17.10;5.22;;;3.20;99.90;;;;;;10204147;28;20139;-48
2021/03/02 04:51:17;;;;;;;14.48;4.60;;;3.10;99.90;;;;;;10194878;28;20341;-48
2021/03/02 04:56:38;;;;;;;16.35;4.82;;;3.10;99.90;;;;;;10196871;28;20109;-48
2021/03/02 05:01:59;;;;;;;22.13;6.03;;;3.10;99.90;;;;;;10195360;28;20051;-49
2021/03/02 05:07:20;;;;;;;28.35;5.95;;;3.00;99.90;;;;;;10200282;28;20043;-48
2021/03/02 05:12:41;;;;;;;16.40;4.70;;;3.00;99.90;;;;;;10196540;28;20427;-49
2021/03/02 05:18:03;;;;;;;19.65;5.55;;;3.00;99.90;;;;;;10200598;28;20659;-48
2021/03/02 05:23:24;;;;;;;15.85;5.10;;;3.00;99.90;;;;;;10195935;28;20090;-49
2021/03/02 05:28:44;;;;;;;16.92;4.45;;;3.00;99.90;;;;;;10197358;28;20499;-48
2021/03/02 05:34:05;;;;;;;15.73;4.22;;;3.00;99.90;;;;;;10196145;28;20207;-48
2021/03/02 05:39:26;;;;;;;11.15;4.65;;;2.90;99.90;;;;;;10200443;28;20067;-48
2021/03/02 05:44:47;;;;;;;13.27;5.45;;;2.90;99.90;;;;;;10194948;28;20563;-49
2021/03/02 05:50:09;;;;;;;17.00;5.88;;;2.90;99.90;;;;;;10201369;28;20066;-48
2021/03/02 05:55:33;;;;;;;19.42;7.57;;;2.90;99.90;;;;;;10198397;28;20420;-49
2021/03/02 06:00:54;;;;;;;12.52;5.38;;;2.90;99.90;;;;;;10202891;28;20077;-48
2021/03/02 06:06:15;;;;;;;16.77;4.53;;;2.80;99.90;;;;;;10198177;28;20039;-49
2021/03/02 06:11:37;;;;;;;21.20;5.22;;;2.90;99.90;;;;;;10194549;28;21885;-49
2021/03/02 06:16:58;;;;;;;15.60;4.68;;;2.90;99.90;;;;;;10199817;28;20043;-49
2021/03/02 06:22:36;;;;;;;17.50;5.65;;;2.80;99.90;;;;;;10197327;28;20802;-49
2021/03/02 06:27:59;;;;;;;14.98;3.42;;;2.70;99.90;;;;;;10199619;28;20054;-49
2021/03/02 06:33:20;;;;;;;14.73;3.47;;;2.70;99.90;;;;;;10197612;28;20044;-48
2021/03/02 06:38:41;;;;;;;18.95;4.72;;;2.70;99.90;;;;;;10210522;28;20434;-48
2021/03/02 06:44:11;;;;;;;17.17;4.43;;;2.60;99.90;;;;;;10207522;29;20039;-48
2021/03/02 06:49:39;;;;;;;10.50;4.53;;;2.50;99.90;;;;;;10209492;29;20352;-49
2021/03/02 06:55:00;;;;;;;10.88;3.80;;;2.60;99.90;;;;;;10205047;28;20075;-49
2021/03/02 07:00:32;;;;;;;7.82;2.58;;;2.60;99.90;;;;;;10213093;28;20055;-48
2021/03/02 07:05:55;;;;;;;19.58;4.88;;;2.60;99.90;;;;;;10215742;28;20031;-48
2021/03/02 07:11:16;;;;;;;15.77;4.38;;;2.70;99.90;;;;;;10216855;29;20118;-48
2021/03/02 07:16:43;;;;;;;18.02;4.22;;;2.80;99.90;;;;;;10214054;28;20586;-48
2021/03/02 07:22:05;;;;;;;16.63;4.65;;;2.80;99.90;;;;;;10208935;28;20127;-48
2021/03/02 07:27:27;;;;;;;15.15;4.68;;;2.80;99.90;;;;;;10217696;28;20045;-49
2021/03/02 07:32:48;;;;;;;15.13;6.75;;;2.90;99.90;;;;;;10209054;29;20043;-49
2021/03/02 07:38:21;;;;;;;16.02;4.78;;;3.00;99.90;;;;;;10218785;28;20035;-49
2021/03/02 07:43:42;;;;;;;15.20;4.72;;;3.10;99.90;;;;;;10213169;29;20478;-49
2021/03/02 07:49:23;;;;;;;16.40;4.57;;;3.30;99.90;;;;;;10206105;29;20400;-49
2021/03/02 07:54:45;;;;;;;16.35;5.88;;;3.40;99.90;;;;;;10204032;28;20091;-49
2021/03/02 08:00:15;;;;;;;18.35;5.72;;;3.50;99.90;;;;;;10207054;28;20040;-49
2021/03/02 08:05:36;;;;;;;14.80;4.75;;;3.70;99.90;;;;;;10210278;28;20444;-49
2021/03/02 08:11:36;;;;;;;15.88;5.63;;;3.80;99.90;;;;;;10205849;28;20047;-48
2021/03/02 08:16:58;;;;;;;13.50;4.50;;;4.10;99.90;;;;;;10197777;28;20519;-49
2021/03/02 08:22:19;;;;;;;14.85;4.30;;;4.30;99.90;;;;;;10205057;28;20102;-49
2021/03/02 08:27:52;;;;;;;12.38;4.13;;;4.40;99.90;;;;;;10200948;28;20487;-49
2021/03/02 08:33:18;;;;;;;13.75;4.93;;;4.70;99.90;;;;;;10204890;28;20042;-49
2021/03/02 08:38:40;;;;;;;11.40;4.32;;;4.90;99.90;;;;;;10200669;29;20063;-49
2021/03/02 08:44:02;;;;;;;17.15;4.13;;;5.20;99.90;;;;;;10195916;28;20044;-49
2021/03/02 08:49:25;;;;;;;16.50;3.40;;;5.50;99.90;;;;;;10191416;29;20032;-49
2021/03/02 08:54:48;;;;;;;13.05;4.00;;;5.80;99.90;;;;;;10226139;29;20402;-49
2021/03/02 09:00:13;;;;;;;12.38;4.68;;;6.20;99.90;;;;;;10210527;28;20031;-49
2021/03/02 09:05:34;;;;;;;11.32;3.75;;;6.60;99.90;;;;;;10213606;29;20476;-49
2021/03/02 09:11:03;;;;;;;12.15;3.90;;;7.00;99.90;;;;;;10207973;28;20508;-49
2021/03/02 09:16:31;;;;;;;14.55;3.58;;;7.50;99.90;;;;;;10200632;28;20054;-48
2021/03/02 09:22:00;;;;;;;14.73;4.38;;;7.90;99.90;;;;;;10199598;28;20263;-49
2021/03/02 09:27:29;;;;;;;10.20;3.35;;;8.30;99.90;;;;;;10200083;28;20055;-49
2021/03/02 09:32:52;;;;;;;11.10;2.80;;;8.70;99.90;;;;;;10201218;28;20054;-49
2021/03/02 09:38:29;;;;;;;8.52;3.40;;;9.30;99.90;;;;;;10201162;28;20477;-49
2021/03/02 09:43:49;;;;;;;9.05;3.53;;;9.60;99.90;;;;;;10194098;28;20046;-49
2021/03/02 09:49:11;;;;;;;6.28;2.28;;;9.90;99.90;;;;;;10197179;28;20123;-48
2021/03/02 09:54:32;;;;;;;6.80;3.70;;;10.30;99.90;;;;;;10196902;29;20497;-49
2021/03/02 09:59:53;;;;;;;6.40;1.90;;;10.60;99.90;;;;;;10194464;28;20643;-49
2021/03/02 10:05:14;;;;;;;6.88;2.42;;;10.70;99.90;;;;;;10198752;28;20040;-49
2021/03/02 10:10:39;;;;;;;10.20;3.63;;;10.90;99.90;;;;;;10206598;28;20043;-49
2021/03/02 10:16:13;;;;;;;4.10;1.58;;;11.00;99.90;;;;;;10198151;28;20048;-49
2021/03/02 10:21:52;;;;;;;8.80;3.15;;;11.20;99.90;;;;;;10159010;29;20070;-49
2021/03/02 10:27:20;;;;;;;6.15;2.83;;;11.40;99.90;;;;;;10159549;29;20039;-49
2021/03/02 10:32:41;;;;;;;5.65;2.13;;;11.50;99.90;;;;;;10160630;29;20040;-49
2021/03/02 10:38:02;;;;;;;6.47;2.50;;;11.60;99.90;;;;;;10163436;29;20048;-49
2021/03/02 10:43:23;;;;;;;7.35;3.42;;;11.90;99.90;;;;;;10166214;29;20048;-49
2021/03/02 10:48:45;;;;;;;5.95;2.60;;;12.20;99.90;;;;;;10163880;29;20707;-49
2021/03/02 10:54:07;;;;;;;19.92;2.75;;;12.30;99.90;;;;;;10160943;29;20032;-50
2021/03/02 10:59:28;;;;;;;6.38;2.67;;;12.90;99.90;;;;;;10162174;29;20094;-49
2021/03/02 11:04:49;;;;;;;4.25;1.65;;;13.20;99.90;;;;;;10149739;29;20036;-49
2021/03/02 11:10:11;;;;;;;5.35;2.20;;;13.40;99.90;;;;;;10160169;29;20805;-49
2021/03/02 11:15:32;;;;;;;7.60;2.63;;;13.50;99.90;;;;;;10159302;29;20123;-49
2021/03/02 11:20:53;;;;;;;5.85;2.13;;;14.10;99.90;;;;;;10191378;29;20046;-49
2021/03/02 11:26:13;;;;;;;6.72;2.00;;;14.10;99.90;;;;;;10209180;28;20115;-49
2021/03/02 11:31:34;;;;;;;6.13;2.40;;;14.90;99.90;;;;;;10216648;29;20547;-50
2021/03/02 11:36:55;;;;;;;6.63;2.40;;;15.30;99.90;;;;;;10211117;28;20176;-49
2021/03/02 11:42:16;;;;;;;7.88;2.80;;;15.60;98.50;;;;;;10207930;29;20115;-49
2021/03/02 11:47:38;;;;;;;7.68;2.95;;;16.60;99.20;;;;;;10191886;29;20497;-49
2021/03/02 11:52:59;;;;;;;5.82;2.30;;;17.10;95.10;;;;;;10208029;29;20067;-49
2021/03/02 11:58:20;;;;;;;8.48;2.38;;;18.20;89.10;;;;;;10202308;29;20057;-50
2021/03/02 12:03:41;;;;;;;6.60;2.33;;;19.20;89.00;;;;;;10200202;28;20035;-50
2021/03/02 12:09:03;;;;;;;6.30;3.00;;;20.10;74.10;;;;;;10209052;28;20130;-50
2021/03/02 12:14:24;;;;;;;8.20;2.65;;;20.60;70.30;;;;;;10187636;28;20051;-50
2021/03/02 12:19:45;;;;;;;5.32;2.00;;;20.30;71.30;;;;;;10185896;28;20499;-50
2021/03/02 12:25:07;;;;;;;5.13;2.38;;;20.80;62.80;;;;;;10184933;28;20043;-50
2021/03/02 12:30:29;;;;;;;6.78;3.28;;;20.70;64.60;;;;;;10190937;28;20472;-50
2021/03/02 12:35:51;;;;;;;8.93;3.63;;;20.70;60.60;;;;;;10186849;28;20130;-50
2021/03/02 12:41:12;;;;;;;3.92;1.63;;;21.20;57.70;;;;;;10185925;28;20140;-50
2021/03/02 12:46:34;;;;;;;5.38;2.45;;;21.10;61.10;;;;;;10184966;28;20047;-50
2021/03/02 12:51:55;;;;;;;8.27;2.88;;;21.90;54.70;;;;;;10183102;28;20522;-50
2021/03/02 12:57:16;;;;;;;8.63;2.42;;;20.70;54.80;;;;;;10186200;28;20047;-50
2021/03/02 13:02:42;;;;;;;7.43;2.95;;;21.20;55.20;;;;;;10189911;28;20027;-50
2021/03/02 13:08:03;;;;;;;6.25;2.28;;;21.80;55.80;;;;;;10186672;28;20067;-50
2021/03/02 13:13:27;;;;;;;5.28;2.67;;;21.80;51.80;;;;;;10186185;28;20237;-50
2021/03/02 13:18:49;;;;;;;6.85;2.88;;;22.20;53.40;;;;;;10186500;28;20098;-50
2021/03/02 13:24:11;;;;;;;5.93;2.55;;;21.70;53.60;;;;;;10182407;28;20527;-50
2021/03/02 13:29:33;;;;;;;6.78;3.28;;;22.60;51.90;;;;;;10182551;28;20097;-50
2021/03/02 13:34:54;;;;;;;5.97;2.45;;;22.70;52.20;;;;;;10180334;28;20070;-50
2021/03/02 13:40:17;;;;;;;7.00;2.55;;;22.80;52.90;;;;;;10185210;28;20066;-50
2021/03/02 13:45:39;;;;;;;9.18;2.78;;;22.90;52.40;;;;;;10183892;28;20039;-50
2021/03/02 13:51:01;;;;;;;7.82;2.75;;;22.20;52.20;;;;;;10183296;28;20126;-50
2021/03/02 13:56:24;;;;;;;8.93;3.35;;;21.10;54.20;;;;;;10182479;28;20230;-50
2021/03/02 14:01:45;;;;;;;7.38;2.83;;;20.50;57.60;;;;;;10185410;28;20169;-50
2021/03/02 14:07:06;;;;;;;5.57;2.90;;;20.10;58.30;;;;;;10184082;28;20499;-50
2021/03/02 14:12:28;;;;;;;6.72;3.65;;;20.40;58.40;;;;;;10186316;28;20070;-50
2021/03/02 14:17:50;;;;;;;6.22;2.63;;;20.10;60.40;;;;;;10185192;28;20035;-50
2021/03/02 14:23:12;;;;;;;11.60;3.63;;;21.00;58.50;;;;;;10181604;28;20047;-50
2021/03/02 14:28:35;;;;;;;7.38;3.35;;;20.50;57.10;;;;;;10182092;28;20054;-50
2021/03/02 14:33:58;;;;;;;7.18;4.00;;;19.70;63.70;;;;;;10181453;28;20043;-50
2021/03/02 14:39:19;;;;;;;6.68;2.72;;;20.10;60.40;;;;;;10186183;28;20047;-50
2021/03/02 14:44:47;;;;;;;5.10;2.55;;;20.50;60.30;;;;;;10178818;28;20352;-50
2021/03/02 14:50:09;;;;;;;6.32;2.65;;;20.30;63.70;;;;;;10179930;28;20074;-49
2021/03/02 14:55:29;;;;;;;6.93;3.42;;;20.30;61.60;;;;;;10182251;28;20121;-49
2021/03/02 15:01:02;;;;;;;7.82;3.72;;;19.70;65.10;;;;;;10200989;28;20036;-49
2021/03/02 15:06:25;;;;;;;9.57;3.67;;;19.60;65.40;;;;;;10205915;28;20039;-49
2021/03/02 15:11:48;;;;;;;8.25;2.72;;;18.30;70.10;;;;;;10207173;29;20451;-48
2021/03/02 15:17:10;;;;;;;7.93;2.72;;;17.20;78.80;;;;;;10210904;28;20043;-49
2021/03/02 15:22:31;;;;;;;6.07;2.90;;;16.70;88.80;;;;;;10209808;28;20494;-49
2021/03/02 15:27:54;;;;;;;7.32;3.30;;;16.70;91.40;;;;;;10198538;28;20087;-49
2021/03/02 15:33:15;;;;;;;7.47;3.40;;;16.30;92.80;;;;;;10206210;28;20043;-49
2021/03/02 15:38:38;;;;;;;5.53;3.13;;;15.90;95.30;;;;;;10208451;28;20047;-49
2021/03/02 15:44:02;;;;;;;7.15;3.28;;;15.70;97.70;;;;;;10204197;28;20088;-48
2021/03/02 15:49:27;;;;;;;8.68;3.20;;;15.50;98.40;;;;;;10204785;28;20708;-49
2021/03/02 15:54:50;;;;;;;7.82;3.17;;;15.20;99.90;;;;;;10208632;28;20144;-49
2021/03/02 16:00:13;;;;;;;8.18;3.05;;;15.10;99.90;;;;;;10205100;28;20031;-49
2021/03/02 16:05:36;;;;;;;6.38;3.10;;;14.90;99.90;;;;;;10209162;29;20108;-49
2021/03/02 16:11:02;;;;;;;9.15;2.92;;;14.80;99.90;;;;;;10205125;28;20981;-49
2021/03/02 16:16:25;;;;;;;10.88;4.57;;;14.70;99.90;;;;;;10205417;28;20064;-48
2021/03/02 16:21:49;;;;;;;9.25;3.67;;;14.60;99.90;;;;;;10203173;28;20065;-49
2021/03/02 16:27:10;;;;;;;10.18;3.75;;;14.60;99.90;;;;;;10203813;29;20044;-49
2021/03/02 16:32:33;;;;;;;9.02;3.95;;;14.60;99.90;;;;;;10205553;28;20047;-49
2021/03/02 16:37:54;;;;;;;9.73;3.97;;;14.50;99.90;;;;;;10206741;28;20043;-48
2021/03/02 16:43:15;;;;;;;10.38;3.08;;;14.50;99.90;;;;;;10208110;28;20039;-49
2021/03/02 16:48:36;;;;;;;10.60;4.15;;;14.40;99.90;;;;;;10205405;28;20044;-48
2021/03/02 16:53:57;;;;;;;8.02;3.22;;;14.30;99.90;;;;;;10201722;29;20134;-48
2021/03/02 16:59:22;;;;;;;8.20;3.33;;;14.20;99.90;;;;;;10200572;28;20110;-49
2021/03/02 17:04:44;;;;;;;7.38;2.72;;;14.20;99.90;;;;;;10204524;29;20031;-48
2021/03/02 17:10:06;;;;;;;8.32;3.70;;;14.10;99.90;;;;;;10205768;29;20101;-49
2021/03/02 17:15:27;;;;;;;7.55;3.38;;;14.00;99.90;;;;;;10211125;28;20118;-49
2021/03/02 17:20:48;;;;;;;8.07;3.65;;;13.90;99.90;;;;;;10198313;28;20043;-49
2021/03/02 17:26:09;;;;;;;7.03;4.03;;;13.60;99.90;;;;;;10203988;28;20048;-49
2021/03/02 17:31:30;;;;;;;7.22;3.13;;;13.50;99.90;;;;;;10203944;28;20086;-49
2021/03/02 17:36:51;;;;;;;9.35;3.70;;;13.30;99.90;;;;;;10197976;28;20043;-49
2021/03/02 17:42:12;;;;;;;8.52;3.58;;;13.20;99.90;;;;;;10201075;28;20050;-49
2021/03/02 17:47:34;;;;;;;14.35;3.63;;;12.90;99.90;;;;;;10167325;28;21699;-49
2021/03/02 17:52:55;;;;;;;11.70;4.03;;;12.50;99.90;;;;;;10181865;28;20332;-49
2021/03/02 17:58:16;;;;;;;13.13;4.10;;;12.20;99.90;;;;;;10181035;28;20369;-49
2021/03/02 18:03:37;;;;;;;9.73;4.38;;;11.90;99.90;;;;;;10184172;28;20395;-49
2021/03/02 18:08:58;;;;;;;10.95;4.95;;;11.70;99.90;;;;;;10185504;28;20047;-49
2021/03/02 18:14:19;;;;;;;22.73;7.53;;;11.50;99.90;;;;;;10181749;28;20046;-49
2021/03/02 18:19:40;;;;;;;19.85;7.70;;;11.20;99.90;;;;;;10182372;28;20044;-49
2021/03/02 18:25:02;;;;;;;17.13;7.38;;;11.00;99.90;;;;;;10178431;28;20039;-49
2021/03/02 18:30:23;;;;;;;12.93;5.10;;;11.00;99.90;;;;;;10185599;28;20492;-48
2021/03/02 18:35:44;;;;;;;15.60;5.50;;;10.90;99.90;;;;;;10182220;28;20133;-49
2021/03/02 18:41:05;;;;;;;10.93;4.32;;;10.70;99.90;;;;;;10185273;28;20293;-48
2021/03/02 18:46:27;;;;;;;8.38;4.18;;;10.60;99.90;;;;;;10186347;28;20110;-49
2021/03/02 18:51:48;;;;;;;16.10;5.55;;;10.50;99.90;;;;;;10181128;28;20605;-49
2021/03/02 18:57:10;;;;;;;12.25;4.70;;;10.40;99.90;;;;;;10183453;28;20395;-48
2021/03/02 19:02:31;;;;;;;12.32;4.85;;;10.20;99.90;;;;;;10184453;28;20035;-49
2021/03/02 19:07:52;;;;;;;12.55;3.80;;;10.00;99.90;;;;;;10182930;28;20047;-49
2021/03/02 19:13:13;;;;;;;8.45;4.38;;;9.90;99.90;;;;;;10183899;28;20040;-49
2021/03/02 19:18:37;;;;;;;12.18;4.13;;;9.80;99.90;;;;;;10180895;28;20488;-48
2021/03/02 19:23:58;;;;;;;9.57;4.85;;;9.60;99.90;;;;;;10176099;28;20647;-49
2021/03/02 19:29:19;;;;;;;18.05;5.05;;;9.60;99.90;;;;;;10180087;28;20139;-48
2021/03/02 19:34:40;;;;;;;10.35;4.50;;;9.50;99.90;;;;;;10179355;28;20097;-48
2021/03/02 19:40:03;;;;;;;10.38;3.45;;;9.40;99.90;;;;;;10164869;28;22193;-48
2021/03/02 19:45:24;;;;;;;10.93;4.93;;;9.20;99.90;;;;;;10190576;28;20284;-48
2021/03/02 19:50:45;;;;;;;11.32;4.35;;;9.10;99.90;;;;;;10187577;28;20039;-48
2021/03/02 19:56:06;;;;;;;15.27;7.47;;;9.00;99.90;;;;;;10190446;28;20172;-48
2021/03/02 20:01:27;;;;;;;23.48;8.23;;;8.90;99.90;;;;;;10188754;28;20047;-48
2021/03/02 20:06:49;;;;;;;25.02;8.88;;;8.80;99.90;;;;;;10188106;28;20040;-49
2021/03/02 20:12:10;;;;;;;20.38;10.18;;;8.70;99.90;;;;;;10186952;28;20047;-49
2021/03/02 20:17:31;;;;;;;22.50;8.27;;;8.70;99.90;;;;;;10185279;28;20062;-48
2021/03/02 20:22:52;;;;;;;13.95;6.53;;;8.60;99.90;;;;;;10188151;28;20078;-48
2021/03/02 20:28:13;;;;;;;9.90;4.45;;;8.40;99.90;;;;;;10183729;28;20061;-48
2021/03/02 20:33:34;;;;;;;11.00;4.93;;;8.30;99.90;;;;;;10185757;28;20119;-48
2021/03/02 20:38:55;;;;;;;11.80;4.63;;;8.30;99.90;;;;;;10185386;28;20039;-49
2021/03/02 20:44:16;;;;;;;15.48;4.82;;;8.20;99.90;;;;;;10188170;28;20039;-48
2021/03/02 20:49:37;;;;;;;17.08;6.60;;;8.10;99.90;;;;;;10186856;28;20101;-48
2021/03/02 20:54:58;;;;;;;17.20;5.97;;;8.00;99.90;;;;;;10186625;28;20031;-48
2021/03/02 21:00:19;;;;;;;18.08;7.15;;;7.90;99.90;;;;;;10184841;28;20039;-48
2021/03/02 21:05:40;;;;;;;20.05;6.88;;;7.90;99.90;;;;;;10183213;28;20074;-49
2021/03/02 21:11:01;;;;;;;17.20;6.10;;;7.80;99.90;;;;;;10176704;28;20858;-48
2021/03/02 21:16:22;;;;;;;16.52;5.03;;;7.80;99.90;;;;;;10182969;28;20509;-48
2021/03/02 21:21:43;;;;;;;13.65;4.90;;;7.70;99.90;;;;;;10186947;28;20043;-48
2021/03/02 21:27:04;;;;;;;14.20;4.25;;;7.60;99.90;;;;;;10188537;28;20051;-48
2021/03/02 21:32:25;;;;;;;10.82;3.83;;;7.50;99.90;;;;;;10184294;28;20511;-48
2021/03/02 21:37:46;;;;;;;13.27;4.70;;;7.50;99.90;;;;;;10182483;28;20050;-48
2021/03/02 21:43:07;;;;;;;16.35;4.70;;;7.30;99.90;;;;;;10179558;28;20044;-48
2021/03/02 21:48:28;;;;;;;11.82;3.33;;;7.30;99.90;;;;;;10181021;28;20043;-48
2021/03/02 21:53:49;;;;;;;11.38;3.22;;;7.30;99.90;;;;;;10190200;28;20439;-48
2021/03/02 21:59:10;;;;;;;11.23;3.20;;;7.20;99.90;;;;;;10194274;28;20515;-48
2021/03/02 22:04:31;;;;;;;11.60;3.75;;;7.10;99.90;;;;;;10198281;28;20048;-48
2021/03/02 22:09:52;;;;;;;16.02;4.85;;;7.00;99.90;;;;;;10191264;28;20040;-48
2021/03/02 22:15:14;;;;;;;12.43;4.47;;;7.00;99.90;;;;;;10196433;28;20061;-48
2021/03/02 22:20:35;;;;;;;11.82;3.92;;;6.90;99.90;;;;;;10200910;28;20062;-48
2021/03/02 22:25:56;;;;;;;13.15;4.53;;;6.80;99.90;;;;;;10193125;28;21729;-48
2021/03/02 22:31:17;;;;;;;9.38;3.40;;;6.80;99.90;;;;;;10192133;28;20051;-48
2021/03/02 22:36:38;;;;;;;7.90;4.05;;;6.70;99.90;;;;;;10197741;28;20058;-48
2021/03/02 22:41:59;;;;;;;11.10;4.07;;;6.70;99.90;;;;;;10196215;28;20035;-48
2021/03/02 22:47:20;;;;;;;13.82;4.43;;;6.60;99.90;;;;;;10194541;28;20074;-48
2021/03/02 22:52:41;;;;;;;12.73;4.60;;;6.50;99.90;;;;;;10194258;28;20154;-48
2021/03/02 22:58:04;;;;;;;8.80;4.07;;;6.50;99.90;;;;;;10198199;28;20102;-48
2021/03/02 23:03:25;;;;;;;9.90;4.25;;;6.40;99.90;;;;;;10196235;28;20044;-48
2021/03/02 23:08:46;;;;;;;12.55;4.30;;;6.30;99.90;;;;;;10203036;28;20047;-48
2021/03/02 23:14:07;;;;;;;7.10;3.50;;;6.30;99.90;;;;;;10205031;28;20142;-48
2021/03/02 23:19:28;;;;;;;15.18;4.57;;;6.30;99.90;;;;;;10204818;28;20358;-48
2021/03/02 23:24:49;;;;;;;8.48;3.60;;;6.20;99.90;;;;;;10206546;28;20315;-48
2021/03/02 23:30:13;;;;;;;12.15;4.53;;;6.00;99.90;;;;;;10204895;28;20047;-48
2021/03/02 23:35:34;;;;;;;9.05;3.95;;;6.00;99.90;;;;;;10203081;28;20055;-48
2021/03/02 23:40:55;;;;;;;12.18;4.57;;;6.00;99.90;;;;;;10201432;28;20043;-48
2021/03/02 23:46:16;;;;;;;17.17;4.43;;;5.90;99.90;;;;;;10209633;28;20399;-48
2021/03/02 23:51:38;;;;;;;10.80;5.50;;;5.80;99.90;;;;;;10203595;28;20502;-48
2021/03/02 23:56:59;;;;;;;15.93;5.72;;;5.80;99.90;;;;;;10205715;28;20069;-48
